Terminal Aerodrome Forecast
Issued by NWS

Home | Current Version | Previous Version | Text Only | Print | Product List | Glossary On
Versions: 1 2 3 4 5 6 7 8 9 10 11 12 13 14 15 16
000
FTAK31 PAJN 050522
TAFAYA
TAF
PAYA 050522Z 0506/0606 10011G20KT 5SM -RA BR BKN015 OVC035
      TEMPO 0506/0508 2SM RA BR BKN011 OVC015
     FM050800 09011KT P6SM VCSH BKN020 OVC035
     FM051300 VRB03KT P6SM VCSH SCT020 OVC050
     FM051800 11010KT 5SM -RA BR BKN015 OVC025 WS020/14030KT
     FM060000 14015G23KT 4SM -RA BR BKN015 OVC025 WS020/14050KT
      AMD LTD TO CLD VIS AND WIND 0506/0509=

USA.gov is the U.S. government's official web portal to all federal, state and local government web resources and services.